createdAt,value
2019-01-02T00:03:30.802Z,25.27
2019-01-02T00:08:36.768Z,29.80
2019-01-02T00:13:42.147Z,33.23
2019-01-02T00:18:47.137Z,32.97
2019-01-02T00:23:52.210Z,31.30
2019-01-02T00:28:57.811Z,25.50
2019-01-02T00:34:03.443Z,31.73
2019-01-02T00:39:09.707Z,30.97
2019-01-02T00:44:15.607Z,33.33
2019-01-02T00:49:20.734Z,26.67
2019-01-02T00:54:27.041Z,22.97
2019-01-02T00:59:32.144Z,26.20
2019-01-02T01:04:37.241Z,28.50
2019-01-02T01:09:42.272Z,26.03
2019-01-02T01:14:47.248Z,30.10
2019-01-02T01:19:52.566Z,32.47
2019-01-02T01:24:57.868Z,30.10
2019-01-02T01:30:04.271Z,29.27
2019-01-02T01:35:13.731Z,30.73
2019-01-02T01:40:19.338Z,31.63
2019-01-02T01:45:25.824Z,28.43
2019-01-02T01:50:37.360Z,27.77
2019-01-02T01:55:42.834Z,26.80
2019-01-02T02:00:50.547Z,30.97
2019-01-02T02:05:55.642Z,31.97
2019-01-02T02:11:01.214Z,28.03
2019-01-02T02:16:06.207Z,26.53
2019-01-02T02:21:11.302Z,23.47
2019-01-02T02:26:16.349Z,32.83
2019-01-02T02:31:22.016Z,25.13
2019-01-02T02:36:27.483Z,25.47
2019-01-02T02:41:32.936Z,25.37
2019-01-02T02:46:38.272Z,26.57
2019-01-02T02:51:43.461Z,26.53
2019-01-02T02:56:49.366Z,27.20
2019-01-02T03:01:54.805Z,29.60
2019-01-02T03:07:00.270Z,35.20
2019-01-02T03:12:05.605Z,34.07
2019-01-02T03:17:10.686Z,37.47
2019-01-02T03:22:16.447Z,30.20
2019-01-02T03:27:21.764Z,29.80
2019-01-02T03:32:27.056Z,29.07
2019-01-02T03:37:32.452Z,27.50
2019-01-02T03:42:37.494Z,32.97
2019-01-02T03:47:42.592Z,31.37
2019-01-02T03:52:47.674Z,30.77
2019-01-02T03:57:52.773Z,34.03
2019-01-02T04:02:57.920Z,30.93
2019-01-02T04:08:05.808Z,30.70
2019-01-02T04:13:12.975Z,27.40
2019-01-02T04:18:17.996Z,34.33
2019-01-02T04:23:23.129Z,34.07
2019-01-02T04:28:28.529Z,33.93
2019-01-02T04:33:33.530Z,27.07
2019-01-02T04:38:38.552Z,32.30
2019-01-02T04:43:43.754Z,29.70
2019-01-02T04:48:49.057Z,31.10
2019-01-02T04:53:54.127Z,31.17
2019-01-02T04:58:59.304Z,29.73
2019-01-02T05:04:04.720Z,32.37
2019-01-02T05:09:09.882Z,32.73
2019-01-02T05:14:14.933Z,33.47
2019-01-02T05:19:20.718Z,33.13
2019-01-02T05:24:26.030Z,31.30
2019-01-02T05:29:31.156Z,29.70
2019-01-02T05:34:36.347Z,31.30
2019-01-02T05:39:41.790Z,31.23
2019-01-02T05:44:46.914Z,31.27
2019-01-02T05:49:52.002Z,33.80
2019-01-02T05:54:57.024Z,32.23
2019-01-02T06:00:02.520Z,31.80
2019-01-02T06:05:08.300Z,31.70
2019-01-02T06:10:15.089Z,38.07
2019-01-02T06:15:20.466Z,33.30
2019-01-02T06:20:25.665Z,32.23
2019-01-02T06:25:30.716Z,31.70
2019-01-02T06:30:35.726Z,31.80
2019-01-02T06:35:41.133Z,31.77
2019-01-02T06:40:46.653Z,26.17
2019-01-02T06:45:51.780Z,29.03
2019-01-02T06:50:56.935Z,31.07
2019-01-02T06:56:02.164Z,34.27
2019-01-02T07:01:08.129Z,35.27
2019-01-02T07:06:13.292Z,31.67
2019-01-02T07:11:18.498Z,35.63
2019-01-02T07:16:23.704Z,34.43
2019-01-02T07:21:28.813Z,30.90
2019-01-02T07:26:34.541Z,33.77
2019-01-02T07:31:39.676Z,36.70
2019-01-02T07:37:31.942Z,35.67
2019-01-02T07:43:08.431Z,34.33
2019-01-02T07:48:47.859Z,35.27
2019-01-02T07:54:25.376Z,31.60
2019-01-02T08:00:23.449Z,34.17
2019-01-02T08:06:01.373Z,35.13
2019-01-02T08:11:32.616Z,33.37
2019-01-02T08:17:12.516Z,36.67
2019-01-02T08:22:53.845Z,31.73
2019-01-02T08:28:40.133Z,33.20
2019-01-02T08:34:26.655Z,26.97
2019-01-02T08:40:12.154Z,34.07
2019-01-02T08:45:54.440Z,39.90
2019-01-02T08:51:31.513Z,38.33
2019-01-02T08:57:29.771Z,36.30
2019-01-02T09:02:57.021Z,33.60
2019-01-02T09:08:42.830Z,36.60
2019-01-02T09:14:24.383Z,30.60
2019-01-02T09:20:03.256Z,38.67
2019-01-02T09:25:43.845Z,35.13
2019-01-02T09:31:27.793Z,38.87
2019-01-02T09:37:14.049Z,36.97
2019-01-02T09:43:00.612Z,34.30
2019-01-02T09:48:45.396Z,34.30
2019-01-02T09:54:48.708Z,35.73
2019-01-02T10:00:42.911Z,28.93
2019-01-02T10:06:11.743Z,26.20
2019-01-02T10:11:42.799Z,31.93
2019-01-02T10:17:12.798Z,22.53
2019-01-02T10:22:49.998Z,23.23
2019-01-02T10:28:40.545Z,26.67
2019-01-02T10:34:31.801Z,20.43
2019-01-02T10:40:17.225Z,21.90
2019-01-02T10:46:06.104Z,22.90
2019-01-02T10:52:03.725Z,22.20
2019-01-02T10:57:50.926Z,23.33
2019-01-02T11:03:41.351Z,26.03
2019-01-02T11:09:18.111Z,24.13
2019-01-02T11:14:54.655Z,29.20
2019-01-02T11:20:36.863Z,28.20
2019-01-02T11:26:17.005Z,24.77
2019-01-02T11:31:57.693Z,23.70
2019-01-02T11:37:41.143Z,24.70
2019-01-02T11:43:15.059Z,24.93
2019-01-02T11:48:20.187Z,22.97
2019-01-02T11:53:26.385Z,22.40
2019-01-02T11:58:35.377Z,20.53
2019-01-02T12:03:41.071Z,23.73
2019-01-02T12:08:53.669Z,23.80
2019-01-02T12:14:00.761Z,19.43
2019-01-02T12:19:09.237Z,22.63
2019-01-02T12:24:15.609Z,22.63
2019-01-02T12:29:22.884Z,25.87
2019-01-02T12:34:30.617Z,26.83
2019-01-02T12:39:43.329Z,22.33
2019-01-02T12:44:50.719Z,24.57
2019-01-02T12:49:56.396Z,22.77
2019-01-02T12:55:01.504Z,30.43
2019-01-02T13:00:13.643Z,26.57
2019-01-02T13:05:52.391Z,26.67
2019-01-02T13:11:15.396Z,25.83
2019-01-02T13:16:49.684Z,26.70
2019-01-02T13:22:23.836Z,25.53
2019-01-02T13:27:40.086Z,24.70
2019-01-02T13:33:27.071Z,22.90
2019-01-02T13:38:59.657Z,22.27
2019-01-02T13:44:30.673Z,21.33
2019-01-02T13:49:47.042Z,21.27
2019-01-02T13:54:53.503Z,21.43
2019-01-02T13:59:58.870Z,19.30
2019-01-02T14:05:04.268Z,22.60
2019-01-02T14:10:09.755Z,25.93
2019-01-02T14:15:15.908Z,20.00
2019-01-02T14:20:21.574Z,22.27
2019-01-02T14:25:26.804Z,21.30
2019-01-02T14:30:31.901Z,22.97
2019-01-02T14:35:36.979Z,23.57
2019-01-02T14:40:42.028Z,25.50
2019-01-02T14:45:47.257Z,24.97
2019-01-02T14:50:52.339Z,24.93
2019-01-02T14:55:59.242Z,26.73
2019-01-02T15:01:04.732Z,32.60
2019-01-02T15:06:10.219Z,30.00
2019-01-02T15:11:15.364Z,31.33
2019-01-02T15:16:20.485Z,32.57
2019-01-02T15:21:25.486Z,27.20
2019-01-02T15:26:30.720Z,34.60
2019-01-02T15:31:36.549Z,29.63
2019-01-02T15:36:42.057Z,34.40
2019-01-02T15:41:47.290Z,32.47
2019-01-02T15:46:52.810Z,33.50
2019-01-02T15:51:58.371Z,35.20
2019-01-02T15:57:03.508Z,34.17
2019-01-02T16:02:09.130Z,36.03
2019-01-02T16:07:14.382Z,36.70
2019-01-02T16:12:19.568Z,30.30
2019-01-02T16:17:24.716Z,29.17
2019-01-02T16:22:37.722Z,31.60
2019-01-02T16:27:44.528Z,35.77
2019-01-02T16:32:50.226Z,33.07
2019-01-02T16:37:56.918Z,34.13
2019-01-02T16:43:02.370Z,35.57
2019-01-02T16:48:09.100Z,34.30
2019-01-02T16:53:14.210Z,36.23
2019-01-02T16:58:20.082Z,27.60
2019-01-02T17:03:25.643Z,35.07
2019-01-02T17:08:31.152Z,32.60
2019-01-02T17:13:36.318Z,36.03
2019-01-02T17:18:41.627Z,32.97
2019-01-02T17:23:49.109Z,32.80
2019-01-02T17:28:54.163Z,29.20
2019-01-02T17:33:59.954Z,32.70
2019-01-02T17:39:07.662Z,39.57
2019-01-02T17:44:13.182Z,41.63
2019-01-02T17:49:18.319Z,37.17
2019-01-02T17:54:23.912Z,39.73
2019-01-02T17:59:29.107Z,37.73
2019-01-02T18:04:35.182Z,36.87
2019-01-02T18:09:41.169Z,31.73
2019-01-02T18:14:46.501Z,33.57
2019-01-02T18:19:51.965Z,33.30
2019-01-02T18:24:57.202Z,32.63
2019-01-02T18:30:02.423Z,32.13
2019-01-02T18:35:08.111Z,34.30
2019-01-02T18:40:14.935Z,37.13
2019-01-02T18:45:20.481Z,29.10
2019-01-02T18:50:26.682Z,31.83
2019-01-02T18:55:31.914Z,28.33
2019-01-02T19:00:37.317Z,31.73
2019-01-02T19:05:42.837Z,32.63
2019-01-02T19:10:49.098Z,31.70
2019-01-02T19:15:54.377Z,32.07
2019-01-02T19:21:10.007Z,32.53
2019-01-02T19:26:15.615Z,32.83
2019-01-02T19:31:20.952Z,32.97
2019-01-02T19:36:26.601Z,39.03
2019-01-02T19:41:31.727Z,34.17
2019-01-02T19:46:38.607Z,36.27
2019-01-02T19:51:58.911Z,37.10
2019-01-02T19:57:07.468Z,35.67
2019-01-02T20:02:25.122Z,34.57
2019-01-02T20:07:31.372Z,29.83
2019-01-02T20:12:38.546Z,32.33
2019-01-02T20:17:43.762Z,32.13
2019-01-02T20:22:48.841Z,30.73
2019-01-02T20:27:54.269Z,30.57
2019-01-02T20:32:59.675Z,33.93
2019-01-02T20:38:04.952Z,30.87
2019-01-02T20:43:10.553Z,33.67
2019-01-02T20:48:15.871Z,34.90
2019-01-02T20:53:21.321Z,32.33
2019-01-02T20:58:26.730Z,34.63
2019-01-02T21:03:32.028Z,35.17
2019-01-02T21:08:37.495Z,33.10
2019-01-02T21:13:42.631Z,35.73
2019-01-02T21:18:48.345Z,34.53
2019-01-02T21:23:55.696Z,36.03
2019-01-02T21:29:00.923Z,34.57
2019-01-02T21:34:05.906Z,36.73
2019-01-02T21:39:11.034Z,39.70
2019-01-02T21:44:16.589Z,40.40
2019-01-02T21:49:22.094Z,40.67
2019-01-02T21:54:27.347Z,39.07
2019-01-02T21:59:32.414Z,40.37
2019-01-02T22:04:37.886Z,45.83
2019-01-02T22:09:43.033Z,42.53
2019-01-02T22:14:48.165Z,39.80
2019-01-02T22:19:53.326Z,37.97
2019-01-02T22:24:58.427Z,38.77
2019-01-02T22:30:03.796Z,37.37
2019-01-02T22:35:10.074Z,38.87
2019-01-02T22:40:15.364Z,41.47
2019-01-02T22:45:20.494Z,35.73
2019-01-02T22:50:25.583Z,35.00
2019-01-02T22:55:31.487Z,28.20
2019-01-02T23:00:54.143Z,27.27
2019-01-02T23:06:30.696Z,29.30
2019-01-02T23:11:53.507Z,28.47
2019-01-02T23:17:18.014Z,31.90
2019-01-02T23:22:57.352Z,28.73
2019-01-02T23:28:20.226Z,31.80
2019-01-02T23:34:02.590Z,27.53
2019-01-02T23:39:41.821Z,28.47
2019-01-02T23:45:08.958Z,28.33
2019-01-02T23:50:39.136Z,25.93
2019-01-02T23:56:18.467Z,30.20
